Time;durP1;ratioP1;P1;durP2;ratioP2;P2;SDS_P1;SDS_P2;PMS_P1;PMS_P2;Temp;Humidity;BMP_temperature;BMP_pressure;BME280_temperature;BME280_humidity;BME280_pressure;Samples;Min_cycle;Max_cycle;Signal;HPM_P1;HPM_P2
2022/01/20 00:01:17;;;;;;;7.45;4.20;;;;;;;;;;5024251;28;20049;-68
2022/01/20 00:03:43;;;;;;;6.97;4.07;;;;;;;;;;5028956;28;20640;-70
2022/01/20 00:27:52;;;;;;;6.18;3.80;;;;;;;;;;5013732;28;20099;-70
2022/01/20 00:32:56;;;;;;;6.47;3.90;;;;;;;;;;5024418;28;20072;-69
2022/01/20 00:35:29;;;;;;;7.20;3.78;;;;;;;;;;5020926;28;20021;-69
2022/01/20 00:37:54;;;;;;;6.28;4.28;;;;;;;;;;5017908;28;20045;-70
2022/01/20 00:40:19;;;;;;;6.60;3.65;;;;;;;;;;5021099;28;20044;-69
2022/01/20 00:42:45;;;;;;;5.70;3.28;;;;;;;;;;5014683;28;20091;-70
2022/01/20 00:45:10;;;;;;;6.68;3.90;;;;;;;;;;5020915;28;20382;-72
2022/01/20 00:47:37;;;;;;;6.53;3.65;;;;;;;;;;5020786;28;20026;-69
2022/01/20 00:50:03;;;;;;;6.18;3.92;;;;;;;;;;5019596;28;20029;-68
2022/01/20 00:52:28;;;;;;;7.03;3.78;;;;;;;;;;5024388;28;20029;-69
2022/01/20 00:54:53;;;;;;;6.38;3.65;;;;;;;;;;5025692;28;20464;-68
2022/01/20 00:57:18;;;;;;;6.95;3.72;;;;;;;;;;5024411;28;20025;-70
2022/01/20 00:59:43;;;;;;;7.38;4.13;;;;;;;;;;5027453;28;20027;-69
2022/01/20 01:02:09;;;;;;;6.03;3.42;;;;;;;;;;5025109;28;20044;-69
2022/01/20 01:04:35;;;;;;;7.07;4.22;;;;;;;;;;5025457;28;20129;-70
2022/01/20 01:09:25;;;;;;;5.32;3.45;;;;;;;;;;5023024;28;20043;-68
2022/01/20 01:11:53;;;;;;;6.97;3.92;;;;;;;;;;5015500;28;20029;-69
2022/01/20 01:14:21;;;;;;;6.35;3.70;;;;;;;;;;5023310;28;20364;-69
2022/01/20 01:24:37;;;;;;;7.80;3.97;;;;;;;;;;5024143;28;20068;-69
2022/01/20 01:27:03;;;;;;;6.43;3.85;;;;;;;;;;5024960;28;20037;-68
2022/01/20 01:32:05;;;;;;;7.25;4.07;;;;;;;;;;5027077;28;20043;-71
2022/01/20 01:34:31;;;;;;;7.18;4.18;;;;;;;;;;5026891;28;20034;-71
2022/01/20 01:39:24;;;;;;;8.63;4.50;;;;;;;;;;5028707;28;20456;-69
2022/01/20 01:41:49;;;;;;;7.88;3.70;;;;;;;;;;5022218;28;20057;-69
2022/01/20 01:44:22;;;;;;;5.68;3.38;;;;;;;;;;5030587;28;20021;-70
2022/01/20 01:46:48;;;;;;;7.03;3.45;;;;;;;;;;5022541;28;20080;-69
2022/01/20 01:49:13;;;;;;;5.78;3.15;;;;;;;;;;5025827;28;20042;-71
2022/01/20 01:51:39;;;;;;;6.00;3.35;;;;;;;;;;5031243;28;20029;-70
2022/01/20 01:54:04;;;;;;;6.80;3.15;;;;;;;;;;5030806;28;20543;-70
2022/01/20 01:56:29;;;;;;;5.82;3.33;;;;;;;;;;5027060;28;20378;-69
2022/01/20 01:58:55;;;;;;;5.05;3.10;;;;;;;;;;5024165;28;20384;-70
2022/01/20 02:01:20;;;;;;;6.28;3.38;;;;;;;;;;5027357;28;20030;-70
2022/01/20 02:03:55;;;;;;;5.45;3.20;;;;;;;;;;5026831;28;20432;-70
2022/01/20 02:06:41;;;;;;;5.13;3.20;;;;;;;;;;5025622;28;20042;-69
2022/01/20 02:17:52;;;;;;;5.22;2.88;;;;;;;;;;5026183;28;20043;-69
2022/01/20 02:20:14;;;;;;;7.07;3.53;;;;;;;;;;5022768;28;20044;-68
2022/01/20 02:22:40;;;;;;;6.07;3.00;;;;;;;;;;5033604;28;20024;-70
2022/01/20 02:25:05;;;;;;;6.63;3.80;;;;;;;;;;5028060;28;20025;-69
2022/01/20 02:27:30;;;;;;;7.28;3.55;;;;;;;;;;5023421;28;20483;-69
2022/01/20 02:29:56;;;;;;;6.78;3.25;;;;;;;;;;5026557;28;20029;-70
2022/01/20 02:32:21;;;;;;;5.75;2.90;;;;;;;;;;5022796;28;20132;-71
2022/01/20 02:34:46;;;;;;;5.45;3.10;;;;;;;;;;5026856;28;20009;-70
2022/01/20 02:37:14;;;;;;;6.22;3.15;;;;;;;;;;5026931;28;20035;-69
2022/01/20 02:44:54;;;;;;;5.97;3.47;;;;;;;;;;5029538;28;20036;-69
2022/01/20 02:47:21;;;;;;;4.82;3.10;;;;;;;;;;5029123;28;20025;-68
2022/01/20 02:49:47;;;;;;;5.53;3.25;;;;;;;;;;5026515;28;20473;-68
2022/01/20 02:52:12;;;;;;;6.10;3.58;;;;;;;;;;5025925;28;20084;-69
2022/01/20 02:54:37;;;;;;;5.15;3.30;;;;;;;;;;5025101;28;20072;-70
2022/01/20 02:57:04;;;;;;;5.95;3.35;;;;;;;;;;5025150;28;20130;-70
2022/01/20 02:59:29;;;;;;;6.50;3.40;;;;;;;;;;5024560;28;20103;-70
2022/01/20 03:01:54;;;;;;;6.70;3.78;;;;;;;;;;5021579;28;20041;-70
2022/01/20 03:04:24;;;;;;;5.47;3.17;;;;;;;;;;5027487;28;20021;-70
2022/01/20 03:06:49;;;;;;;6.40;3.90;;;;;;;;;;5029180;28;20123;-71
2022/01/20 03:09:14;;;;;;;6.28;3.47;;;;;;;;;;5030134;28;20022;-70
2022/01/20 03:11:39;;;;;;;6.72;4.00;;;;;;;;;;5021588;28;20029;-70
2022/01/20 03:14:04;;;;;;;6.32;3.65;;;;;;;;;;5027966;28;20104;-69
2022/01/20 03:16:29;;;;;;;6.10;3.53;;;;;;;;;;5029073;28;20098;-70
2022/01/20 03:18:55;;;;;;;5.63;3.50;;;;;;;;;;5026574;28;20068;-69
2022/01/20 03:21:20;;;;;;;6.28;3.85;;;;;;;;;;5025110;28;20024;-70
2022/01/20 03:23:45;;;;;;;5.60;3.55;;;;;;;;;;5027705;28;20032;-68
2022/01/20 03:26:10;;;;;;;6.53;3.35;;;;;;;;;;5028678;28;20437;-70
2022/01/20 03:28:35;;;;;;;5.72;3.40;;;;;;;;;;5024867;28;20030;-71
2022/01/20 03:31:01;;;;;;;6.07;3.40;;;;;;;;;;5028160;28;20041;-71
2022/01/20 03:33:26;;;;;;;6.13;3.97;;;;;;;;;;5024235;28;20017;-70
2022/01/20 03:35:53;;;;;;;5.25;3.63;;;;;;;;;;5025202;28;20391;-69
2022/01/20 03:38:18;;;;;;;5.40;3.45;;;;;;;;;;5026068;28;20029;-71
2022/01/20 03:40:43;;;;;;;5.85;3.40;;;;;;;;;;5023183;28;20128;-70
2022/01/20 03:43:08;;;;;;;6.32;3.47;;;;;;;;;;5024015;28;20037;-70
2022/01/20 03:45:33;;;;;;;5.50;3.55;;;;;;;;;;5021495;28;20108;-69
2022/01/20 03:48:07;;;;;;;8.30;3.85;;;;;;;;;;5026081;28;20021;-71
2022/01/20 03:53:17;;;;;;;7.38;4.20;;;;;;;;;;5021060;28;20041;-69
2022/01/20 03:55:43;;;;;;;7.88;4.40;;;;;;;;;;5026516;28;20034;-69
2022/01/20 03:58:08;;;;;;;6.68;4.00;;;;;;;;;;5019959;28;20490;-69
2022/01/20 04:00:33;;;;;;;7.35;4.20;;;;;;;;;;5018212;28;20025;-69
2022/01/20 04:02:58;;;;;;;7.07;4.07;;;;;;;;;;5023402;28;20112;-70
2022/01/20 04:05:23;;;;;;;7.53;4.32;;;;;;;;;;5023576;28;20026;-69
2022/01/20 04:07:49;;;;;;;8.68;5.03;;;;;;;;;;5019242;28;20469;-70
2022/01/20 04:10:14;;;;;;;7.68;4.65;;;;;;;;;;5020802;28;20037;-68
2022/01/20 04:12:39;;;;;;;9.15;5.30;;;;;;;;;;5021228;28;20040;-69
2022/01/20 04:15:08;;;;;;;8.90;4.95;;;;;;;;;;5022493;28;20047;-69
2022/01/20 04:17:35;;;;;;;7.72;4.82;;;;;;;;;;5028124;28;20075;-68
2022/01/20 04:20:00;;;;;;;9.80;5.40;;;;;;;;;;5022404;28;20104;-69
2022/01/20 04:22:27;;;;;;;8.77;5.05;;;;;;;;;;5024772;28;20105;-68
2022/01/20 04:24:52;;;;;;;8.15;4.78;;;;;;;;;;5027870;28;20076;-69
2022/01/20 04:27:17;;;;;;;8.75;5.03;;;;;;;;;;5022170;28;20025;-69
2022/01/20 04:29:43;;;;;;;11.35;5.57;;;;;;;;;;5022049;28;20087;-69
2022/01/20 04:32:09;;;;;;;11.65;6.05;;;;;;;;;;5022261;28;20030;-68
2022/01/20 04:34:34;;;;;;;9.25;5.20;;;;;;;;;;5023885;28;20030;-68
2022/01/20 04:37:02;;;;;;;10.25;5.63;;;;;;;;;;5018092;28;20030;-70
2022/01/20 04:39:31;;;;;;;10.95;6.25;;;;;;;;;;5018858;28;20100;-69
2022/01/20 04:41:56;;;;;;;10.68;5.72;;;;;;;;;;5024688;28;20021;-69
2022/01/20 04:44:43;;;;;;;11.82;6.15;;;;;;;;;;5024746;28;20075;-69
2022/01/20 04:57:48;;;;;;;12.88;7.72;;;;;;;;;;5021731;28;20033;-68
2022/01/20 05:00:14;;;;;;;11.35;6.38;;;;;;;;;;5026913;28;20018;-69
2022/01/20 05:02:39;;;;;;;15.75;7.63;;;;;;;;;;5022371;28;20026;-68
2022/01/20 05:05:07;;;;;;;13.85;7.45;;;;;;;;;;5019548;28;20491;-69
2022/01/20 05:07:32;;;;;;;15.25;7.47;;;;;;;;;;5027394;28;20048;-68
2022/01/20 05:09:58;;;;;;;13.82;7.38;;;;;;;;;;5024123;28;20465;-70
2022/01/20 05:12:31;;;;;;;15.32;8.55;;;;;;;;;;5026763;28;20052;-68
2022/01/20 05:14:57;;;;;;;15.65;8.27;;;;;;;;;;5025987;28;20407;-68
2022/01/20 05:17:22;;;;;;;14.98;8.15;;;;;;;;;;5032329;28;20799;-67
2022/01/20 05:19:47;;;;;;;13.90;8.32;;;;;;;;;;5027795;28;20030;-68
2022/01/20 05:22:13;;;;;;;14.02;7.70;;;;;;;;;;5025505;28;20036;-68
2022/01/20 05:24:38;;;;;;;16.38;8.98;;;;;;;;;;5033614;28;20079;-69
2022/01/20 05:27:03;;;;;;;17.90;9.35;;;;;;;;;;5032311;28;20021;-68
2022/01/20 05:29:28;;;;;;;18.00;9.48;;;;;;;;;;5026903;28;20013;-70
2022/01/20 05:31:54;;;;;;;16.83;8.98;;;;;;;;;;5034349;28;20037;-69
2022/01/20 05:34:19;;;;;;;20.25;9.68;;;;;;;;;;5032234;28;20087;-69
2022/01/20 05:36:47;;;;;;;18.70;8.80;;;;;;;;;;5033130;28;20045;-69
2022/01/20 05:39:12;;;;;;;17.77;9.40;;;;;;;;;;5033034;28;20027;-69
2022/01/20 05:41:37;;;;;;;16.83;8.65;;;;;;;;;;5032140;28;20108;-68
2022/01/20 05:44:03;;;;;;;16.00;9.55;;;;;;;;;;5034472;28;20405;-68
2022/01/20 05:46:35;;;;;;;18.50;10.05;;;;;;;;;;5034358;28;20564;-69
2022/01/20 05:49:08;;;;;;;17.00;8.52;;;;;;;;;;5030107;28;20080;-68
2022/01/20 05:51:34;;;;;;;17.63;9.48;;;;;;;;;;5028701;28;20830;-70
2022/01/20 05:54:00;;;;;;;16.70;8.98;;;;;;;;;;5035322;28;20071;-68
2022/01/20 05:56:25;;;;;;;15.18;8.73;;;;;;;;;;5034995;28;20033;-69
2022/01/20 05:58:51;;;;;;;17.90;9.77;;;;;;;;;;5031400;28;20013;-69
2022/01/20 06:01:17;;;;;;;14.95;8.68;;;;;;;;;;5034064;28;20029;-69
2022/01/20 06:03:42;;;;;;;15.73;8.95;;;;;;;;;;5035438;28;20092;-69
2022/01/20 06:06:08;;;;;;;16.92;9.13;;;;;;;;;;5034670;28;20033;-69
2022/01/20 06:08:34;;;;;;;18.27;9.50;;;;;;;;;;5034907;28;20104;-70
2022/01/20 06:10:59;;;;;;;17.88;9.88;;;;;;;;;;5030599;28;20030;-68
2022/01/20 06:13:25;;;;;;;16.65;9.07;;;;;;;;;;5024928;28;20095;-69
2022/01/20 06:15:50;;;;;;;17.85;9.88;;;;;;;;;;5024923;28;20026;-70
2022/01/20 06:18:17;;;;;;;16.88;9.80;;;;;;;;;;5027827;28;20037;-70
2022/01/20 06:20:42;;;;;;;14.57;8.90;;;;;;;;;;5021958;28;20489;-70
2022/01/20 06:23:08;;;;;;;17.60;9.65;;;;;;;;;;5029334;28;20029;-70
2022/01/20 06:25:33;;;;;;;18.08;9.00;;;;;;;;;;5019027;28;20018;-69
2022/01/20 06:27:58;;;;;;;13.77;8.50;;;;;;;;;;5023198;28;20029;-68
2022/01/20 06:30:25;;;;;;;15.20;8.38;;;;;;;;;;5030595;28;20108;-69
2022/01/20 06:32:50;;;;;;;13.77;8.13;;;;;;;;;;5028527;28;20037;-71
2022/01/20 06:35:15;;;;;;;14.57;8.32;;;;;;;;;;5031150;28;20120;-68
2022/01/20 06:37:40;;;;;;;13.63;7.95;;;;;;;;;;5025723;28;20037;-71
2022/01/20 06:40:07;;;;;;;13.48;7.70;;;;;;;;;;5031261;28;20518;-70
2022/01/20 06:42:32;;;;;;;12.38;7.43;;;;;;;;;;5030631;28;20106;-70
2022/01/20 06:44:58;;;;;;;13.02;7.93;;;;;;;;;;5031441;28;20076;-70
2022/01/20 06:47:23;;;;;;;15.10;8.13;;;;;;;;;;5029999;28;20037;-69
2022/01/20 06:49:48;;;;;;;12.98;6.90;;;;;;;;;;5030850;28;20404;-69
2022/01/20 06:52:13;;;;;;;10.43;6.55;;;;;;;;;;5030685;28;20048;-70
2022/01/20 06:54:38;;;;;;;11.48;6.57;;;;;;;;;;5025938;28;20483;-70
2022/01/20 06:57:04;;;;;;;12.18;7.35;;;;;;;;;;5027189;28;20025;-69
2022/01/20 06:59:29;;;;;;;13.50;7.90;;;;;;;;;;5028649;28;20032;-70
2022/01/20 07:01:54;;;;;;;14.27;7.53;;;;;;;;;;5030164;28;20048;-69
2022/01/20 07:04:19;;;;;;;11.48;6.75;;;;;;;;;;5031229;28;20493;-70
2022/01/20 07:06:45;;;;;;;12.48;7.50;;;;;;;;;;5031174;28;20046;-69
2022/01/20 07:09:11;;;;;;;11.50;6.47;;;;;;;;;;5031349;28;20112;-70
2022/01/20 07:11:39;;;;;;;12.95;7.18;;;;;;;;;;5034183;28;20530;-70
2022/01/20 07:14:05;;;;;;;10.90;6.95;;;;;;;;;;5034791;28;20021;-69
2022/01/20 07:16:30;;;;;;;11.57;6.60;;;;;;;;;;5033525;28;20109;-69
2022/01/20 07:18:55;;;;;;;10.90;6.18;;;;;;;;;;5033244;28;20053;-69
2022/01/20 07:21:20;;;;;;;13.00;7.05;;;;;;;;;;5030062;28;20380;-69
2022/01/20 07:23:46;;;;;;;10.88;6.63;;;;;;;;;;5030777;28;20060;-70
2022/01/20 07:26:11;;;;;;;12.48;6.40;;;;;;;;;;5028856;28;20075;-71
2022/01/20 07:28:36;;;;;;;10.18;5.93;;;;;;;;;;5028088;28;20013;-70
2022/01/20 07:31:02;;;;;;;11.18;5.90;;;;;;;;;;5028789;28;20026;-71
2022/01/20 07:33:27;;;;;;;9.93;5.88;;;;;;;;;;5029684;28;20656;-70
2022/01/20 07:35:52;;;;;;;8.85;5.25;;;;;;;;;;5029527;28;20373;-70
2022/01/20 07:38:18;;;;;;;9.43;5.93;;;;;;;;;;5025687;28;20025;-70
2022/01/20 07:40:43;;;;;;;11.45;5.72;;;;;;;;;;5027969;28;20028;-71
2022/01/20 07:43:08;;;;;;;8.75;5.25;;;;;;;;;;5028562;28;20039;-71
2022/01/20 07:45:34;;;;;;;9.35;5.07;;;;;;;;;;5029071;28;20022;-71
2022/01/20 07:47:59;;;;;;;8.55;5.15;;;;;;;;;;5023896;28;20052;-71
2022/01/20 07:50:24;;;;;;;8.00;5.03;;;;;;;;;;5029775;28;20032;-70
2022/01/20 07:52:49;;;;;;;7.60;5.00;;;;;;;;;;5028178;28;20034;-71
2022/01/20 07:55:15;;;;;;;6.88;4.68;;;;;;;;;;5029146;28;20545;-72
2022/01/20 07:57:40;;;;;;;7.30;4.80;;;;;;;;;;5029546;28;20017;-71
2022/01/20 08:00:06;;;;;;;9.63;4.75;;;;;;;;;;5029729;28;20049;-71
2022/01/20 08:02:32;;;;;;;6.55;4.53;;;;;;;;;;5017215;28;20025;-72
2022/01/20 08:04:57;;;;;;;8.48;5.13;;;;;;;;;;5027489;28;20036;-71
2022/01/20 08:07:23;;;;;;;7.72;5.00;;;;;;;;;;5030001;28;20061;-71
2022/01/20 08:09:53;;;;;;;8.68;4.93;;;;;;;;;;5029723;28;20372;-71
2022/01/20 08:12:19;;;;;;;7.43;4.53;;;;;;;;;;5025334;28;20571;-72
2022/01/20 08:14:44;;;;;;;7.05;4.60;;;;;;;;;;5027274;28;20038;-74
2022/01/20 08:17:09;;;;;;;7.55;4.65;;;;;;;;;;5030749;28;20046;-74
2022/01/20 08:19:34;;;;;;;7.13;4.80;;;;;;;;;;5029600;28;20436;-63
2022/01/20 08:21:59;;;;;;;7.30;4.50;;;;;;;;;;5027781;28;20037;-64
2022/01/20 08:24:25;;;;;;;6.53;4.07;;;;;;;;;;5030640;28;20030;-64
2022/01/20 08:26:50;;;;;;;5.90;4.03;;;;;;;;;;5028532;28;20029;-63
2022/01/20 08:29:15;;;;;;;6.43;4.30;;;;;;;;;;5029302;28;20022;-63
2022/01/20 08:31:40;;;;;;;8.35;4.97;;;;;;;;;;5015821;28;20057;-64
2022/01/20 08:34:05;;;;;;;6.10;4.13;;;;;;;;;;5025585;28;20066;-63
2022/01/20 08:36:30;;;;;;;6.40;4.25;;;;;;;;;;5025447;28;20116;-63
2022/01/20 08:38:56;;;;;;;6.25;4.00;;;;;;;;;;5029558;28;20026;-64
2022/01/20 08:41:21;;;;;;;6.00;3.83;;;;;;;;;;5029019;28;20029;-63
2022/01/20 08:43:46;;;;;;;7.40;4.28;;;;;;;;;;5029635;28;20014;-63
2022/01/20 08:46:11;;;;;;;6.38;4.05;;;;;;;;;;5026985;28;20040;-62
2022/01/20 08:48:37;;;;;;;7.78;4.00;;;;;;;;;;5029257;28;20408;-64
2022/01/20 08:51:03;;;;;;;6.53;4.28;;;;;;;;;;5029287;28;20034;-64
2022/01/20 08:53:28;;;;;;;8.40;4.57;;;;;;;;;;5029212;28;20031;-63
2022/01/20 08:55:53;;;;;;;6.35;4.22;;;;;;;;;;5029530;28;20369;-63
2022/01/20 08:58:19;;;;;;;6.90;4.55;;;;;;;;;;5021513;28;20033;-63
2022/01/20 09:00:44;;;;;;;6.10;4.07;;;;;;;;;;5029431;28;20528;-63
2022/01/20 09:03:09;;;;;;;5.82;4.20;;;;;;;;;;5029654;28;20017;-63
2022/01/20 09:05:35;;;;;;;6.13;4.28;;;;;;;;;;5028981;28;20029;-63
2022/01/20 09:08:00;;;;;;;6.07;4.07;;;;;;;;;;5024935;28;20423;-63
2022/01/20 09:10:25;;;;;;;6.95;4.40;;;;;;;;;;5026018;28;20021;-63
2022/01/20 09:15:31;;;;;;;6.63;4.63;;;;;;;;;;5029140;28;20024;-64
2022/01/20 09:18:04;;;;;;;6.45;4.32;;;;;;;;;;5029305;28;20404;-62
2022/01/20 09:20:29;;;;;;;7.63;4.68;;;;;;;;;;5028040;28;20473;-64
2022/01/20 09:22:55;;;;;;;6.65;4.25;;;;;;;;;;5028496;28;20053;-62
2022/01/20 09:25:21;;;;;;;7.80;4.50;;;;;;;;;;5029144;28;20022;-63
2022/01/20 09:27:46;;;;;;;5.95;4.25;;;;;;;;;;5028920;28;20025;-63
2022/01/20 09:30:18;;;;;;;6.82;4.57;;;;;;;;;;5026954;28;20021;-63
2022/01/20 09:32:43;;;;;;;7.30;4.82;;;;;;;;;;5029224;28;20048;-64
2022/01/20 09:35:08;;;;;;;6.80;4.60;;;;;;;;;;5028797;28;20465;-62
2022/01/20 09:37:34;;;;;;;6.85;4.80;;;;;;;;;;5028950;28;20437;-63
2022/01/20 09:39:59;;;;;;;7.22;4.88;;;;;;;;;;5028701;28;20341;-63
2022/01/20 09:42:25;;;;;;;7.45;4.82;;;;;;;;;;5028761;28;20037;-61
2022/01/20 09:44:52;;;;;;;7.63;4.78;;;;;;;;;;5029017;28;20036;-63
2022/01/20 09:47:18;;;;;;;7.75;4.85;;;;;;;;;;5027323;28;20083;-63
2022/01/20 09:49:43;;;;;;;9.25;4.90;;;;;;;;;;5029072;28;20026;-62
2022/01/20 09:52:09;;;;;;;7.55;4.40;;;;;;;;;;5026371;28;20034;-62
2022/01/20 09:54:34;;;;;;;6.40;4.25;;;;;;;;;;5028584;28;20036;-63
2022/01/20 09:57:00;;;;;;;5.82;4.20;;;;;;;;;;5028507;28;20033;-63
2022/01/20 09:59:25;;;;;;;7.13;4.30;;;;;;;;;;5028845;28;20079;-63
2022/01/20 10:01:56;;;;;;;8.75;4.63;;;;;;;;;;5029004;28;20480;-63
2022/01/20 10:04:21;;;;;;;5.75;4.13;;;;;;;;;;5031823;28;20607;-62
2022/01/20 10:07:06;;;;;;;6.40;4.15;;;;;;;;;;5032384;28;20057;-62
2022/01/20 10:09:38;;;;;;;6.78;4.15;;;;;;;;;;5032007;28;20499;-63
2022/01/20 10:12:04;;;;;;;7.15;4.55;;;;;;;;;;5027877;28;20057;-62
2022/01/20 10:14:43;;;;;;;9.25;4.43;;;;;;;;;;5029181;28;20014;-66
2022/01/20 10:17:19;;;;;;;6.25;4.18;;;;;;;;;;5031822;28;20541;-63
2022/01/20 10:19:44;;;;;;;7.40;3.90;;;;;;;;;;5031390;28;20513;-64
2022/01/20 10:22:14;;;;;;;7.85;4.32;;;;;;;;;;5031918;28;20069;-63
2022/01/20 10:24:39;;;;;;;6.22;4.53;;;;;;;;;;5025441;28;20044;-63
2022/01/20 10:27:08;;;;;;;8.20;4.30;;;;;;;;;;5032092;28;20399;-62
2022/01/20 10:29:33;;;;;;;5.55;3.75;;;;;;;;;;5032193;28;20029;-63
2022/01/20 10:31:59;;;;;;;6.50;4.20;;;;;;;;;;5031481;28;20504;-63
2022/01/20 10:34:30;;;;;;;5.95;4.25;;;;;;;;;;5027958;28;20022;-63
2022/01/20 10:36:56;;;;;;;6.65;4.43;;;;;;;;;;5032132;28;20100;-63
2022/01/20 10:39:29;;;;;;;7.22;4.30;;;;;;;;;;5031645;28;20339;-63
2022/01/20 10:41:59;;;;;;;6.80;4.57;;;;;;;;;;5031634;28;20064;-63
2022/01/20 10:44:24;;;;;;;6.10;4.30;;;;;;;;;;5028335;28;20396;-63
2022/01/20 10:46:51;;;;;;;6.47;4.80;;;;;;;;;;5031399;28;20035;-62
2022/01/20 10:49:17;;;;;;;7.32;4.55;;;;;;;;;;5031447;28;20040;-63
2022/01/20 10:51:43;;;;;;;6.00;4.30;;;;;;;;;;5031693;28;20112;-63
2022/01/20 10:54:12;;;;;;;6.65;4.47;;;;;;;;;;5029732;28;20060;-64
2022/01/20 10:56:47;;;;;;;5.90;4.22;;;;;;;;;;5029050;28;20032;-64
2022/01/20 10:59:12;;;;;;;5.95;4.25;;;;;;;;;;5031130;28;20052;-64
2022/01/20 11:01:37;;;;;;;6.03;4.18;;;;;;;;;;5031491;28;20061;-64
2022/01/20 11:04:03;;;;;;;7.50;4.15;;;;;;;;;;5031025;28;20737;-64
2022/01/20 11:06:29;;;;;;;6.93;4.50;;;;;;;;;;5030041;28;20053;-62
2022/01/20 11:08:55;;;;;;;5.78;3.72;;;;;;;;;;5031051;28;20079;-63
2022/01/20 11:11:20;;;;;;;6.18;3.70;;;;;;;;;;5030841;28;20057;-64
2022/01/20 11:13:46;;;;;;;5.85;3.63;;;;;;;;;;5031071;28;20426;-63
2022/01/20 11:16:11;;;;;;;6.35;4.10;;;;;;;;;;5026460;28;20140;-63
2022/01/20 11:18:37;;;;;;;4.22;3.17;;;;;;;;;;5027628;28;20030;-62
2022/01/20 11:21:03;;;;;;;6.20;3.90;;;;;;;;;;5030649;28;20025;-63
2022/01/20 11:23:46;;;;;;;5.65;3.88;;;;;;;;;;5034110;28;20369;-62
2022/01/20 11:26:12;;;;;;;5.72;3.30;;;;;;;;;;5028988;28;20047;-63
2022/01/20 11:28:37;;;;;;;7.47;3.70;;;;;;;;;;5024059;28;20104;-63
2022/01/20 11:31:04;;;;;;;5.60;3.08;;;;;;;;;;5030389;28;20508;-63
2022/01/20 11:33:39;;;;;;;6.00;3.42;;;;;;;;;;5030731;28;20380;-63
2022/01/20 11:36:05;;;;;;;5.47;3.10;;;;;;;;;;5029265;28;20033;-63
2022/01/20 11:38:38;;;;;;;4.80;3.10;;;;;;;;;;5029709;28;20033;-63
2022/01/20 11:41:04;;;;;;;4.60;2.70;;;;;;;;;;5030266;28;20422;-63
2022/01/20 11:43:34;;;;;;;5.00;2.90;;;;;;;;;;5030518;28;20036;-63
2022/01/20 11:45:59;;;;;;;;;;;;;;;;;;5030916;28;20017;-64
2022/01/20 11:48:24;;;;;;;5.43;2.78;;;;;;;;;;5027103;28;20023;-63
2022/01/20 11:51:08;;;;;;;7.32;2.70;;;;;;;;;;5030193;28;20091;-62
2022/01/20 11:53:41;;;;;;;5.20;2.63;;;;;;;;;;5023791;28;20130;-62
2022/01/20 11:56:07;;;;;;;4.63;2.75;;;;;;;;;;5024377;28;20053;-62
2022/01/20 11:58:32;;;;;;;5.03;2.50;;;;;;;;;;5027901;28;20025;-63
2022/01/20 12:00:59;;;;;;;6.65;2.45;;;;;;;;;;5029984;28;20025;-63
2022/01/20 12:03:25;;;;;;;5.47;2.70;;;;;;;;;;5023803;28;20456;-63
2022/01/20 12:06:22;;;;;;;5.13;2.45;;;;;;;;;;5029983;28;20032;-66
2022/01/20 12:08:56;;;;;;;7.45;2.97;;;;;;;;;;5026435;28;20037;-65
2022/01/20 12:11:32;;;;;;;6.82;2.42;;;;;;;;;;5025576;28;20044;-63
2022/01/20 12:13:58;;;;;;;5.50;2.65;;;;;;;;;;5027207;28;20034;-63
2022/01/20 12:16:23;;;;;;;4.97;2.50;;;;;;;;;;5027284;28;20064;-63
2022/01/20 12:18:52;;;;;;;3.40;2.10;;;;;;;;;;5027089;28;20429;-64
2022/01/20 12:21:18;;;;;;;4.28;2.20;;;;;;;;;;5026902;28;20025;-63
2022/01/20 12:23:45;;;;;;;4.25;2.33;;;;;;;;;;5026019;28;20524;-64
2022/01/20 12:26:11;;;;;;;5.07;2.30;;;;;;;;;;5026899;28;20156;-62
2022/01/20 12:28:36;;;;;;;6.07;2.40;;;;;;;;;;5027069;28;20100;-64
2022/01/20 12:31:03;;;;;;;5.70;2.47;;;;;;;;;;5021969;28;20645;-64
2022/01/20 12:33:31;;;;;;;6.72;2.50;;;;;;;;;;5026798;28;20038;-65
2022/01/20 12:36:02;;;;;;;3.50;1.90;;;;;;;;;;5016814;28;20017;-64
2022/01/20 12:38:30;;;;;;;6.00;2.33;;;;;;;;;;5016519;28;20042;-63
2022/01/20 12:41:25;;;;;;;4.78;1.90;;;;;;;;;;5016775;28;20014;-64
2022/01/20 12:43:54;;;;;;;4.13;2.20;;;;;;;;;;4923769;29;20846;-64
2022/01/20 12:46:30;;;;;;;6.00;2.45;;;;;;;;;;4944132;29;20456;-64
2022/01/20 12:48:58;;;;;;;4.72;2.22;;;;;;;;;;4947729;29;20073;-62
2022/01/20 12:51:38;;;;;;;3.88;2.10;;;;;;;;;;4947399;29;20066;-62
2022/01/20 12:54:13;;;;;;;4.35;2.13;;;;;;;;;;4944601;29;20502;-63
2022/01/20 12:56:44;;;;;;;4.15;2.00;;;;;;;;;;4940975;29;20024;-64
2022/01/20 12:59:09;;;;;;;3.47;2.05;;;;;;;;;;4936865;29;20050;-62
2022/01/20 13:01:39;;;;;;;5.55;1.85;;;;;;;;;;4943243;29;20039;-62
2022/01/20 13:04:05;;;;;;;5.00;2.35;;;;;;;;;;4945015;28;20035;-62
2022/01/20 13:06:32;;;;;;;4.65;2.50;;;;;;;;;;4944990;29;20102;-62
2022/01/20 13:09:05;;;;;;;4.35;2.40;;;;;;;;;;4938093;29;20027;-63
2022/01/20 13:11:31;;;;;;;3.70;2.22;;;;;;;;;;4930519;29;20857;-64
2022/01/20 13:13:58;;;;;;;3.20;1.88;;;;;;;;;;4936700;29;20035;-63
2022/01/20 13:16:23;;;;;;;4.72;2.08;;;;;;;;;;4935265;28;20051;-64
2022/01/20 13:18:56;;;;;;;4.18;2.20;;;;;;;;;;4931776;29;20609;-63
2022/01/20 13:21:31;;;;;;;4.43;2.08;;;;;;;;;;5018413;28;20040;-62
2022/01/20 13:23:57;;;;;;;3.83;2.28;;;;;;;;;;5022535;28;20505;-63
2022/01/20 13:26:24;;;;;;;3.45;2.00;;;;;;;;;;5028767;28;20095;-63
2022/01/20 13:29:03;;;;;;;4.72;2.17;;;;;;;;;;5019540;28;20057;-63
2022/01/20 13:31:28;;;;;;;3.45;2.22;;;;;;;;;;5021378;28;20029;-64
2022/01/20 13:33:54;;;;;;;3.83;2.42;;;;;;;;;;5028650;28;20056;-63
2022/01/20 13:36:21;;;;;;;5.05;2.63;;;;;;;;;;5023469;28;20013;-63
2022/01/20 13:38:49;;;;;;;7.25;2.50;;;;;;;;;;5024746;28;20049;-64
2022/01/20 13:41:15;;;;;;;5.15;2.22;;;;;;;;;;5031609;28;20057;-63
2022/01/20 13:46:31;;;;;;;5.40;2.60;;;;;;;;;;5024490;28;20539;-62
2022/01/20 13:49:06;;;;;;;4.55;2.47;;;;;;;;;;5021849;28;20041;-63
2022/01/20 13:51:31;;;;;;;4.75;2.42;;;;;;;;;;5019368;28;20045;-62
2022/01/20 13:53:56;;;;;;;4.13;2.22;;;;;;;;;;5024000;28;20098;-62
2022/01/20 13:56:22;;;;;;;4.82;2.33;;;;;;;;;;5021575;28;20045;-63
2022/01/20 13:58:47;;;;;;;4.63;2.50;;;;;;;;;;5021725;28;20029;-62
2022/01/20 14:01:12;;;;;;;4.88;2.60;;;;;;;;;;5031847;28;20025;-63
2022/01/20 14:03:40;;;;;;;3.78;2.03;;;;;;;;;;5024675;28;20018;-63
2022/01/20 14:06:06;;;;;;;3.53;2.30;;;;;;;;;;5026969;28;20409;-64
2022/01/20 14:08:34;;;;;;;4.47;2.40;;;;;;;;;;5031755;28;20025;-63
2022/01/20 14:10:59;;;;;;;5.05;2.50;;;;;;;;;;5029592;28;20111;-62
2022/01/20 14:13:25;;;;;;;3.63;2.05;;;;;;;;;;5019781;28;20400;-64
2022/01/20 14:15:52;;;;;;;3.60;1.98;;;;;;;;;;5030150;28;20029;-63
2022/01/20 14:18:20;;;;;;;4.57;2.17;;;;;;;;;;5023076;28;20025;-63
2022/01/20 14:20:46;;;;;;;3.47;2.15;;;;;;;;;;5034058;28;20030;-64
2022/01/20 14:23:11;;;;;;;4.20;2.50;;;;;;;;;;5031679;28;20040;-63
2022/01/20 14:25:37;;;;;;;4.07;2.00;;;;;;;;;;5025396;28;20083;-63
2022/01/20 14:28:02;;;;;;;5.75;2.50;;;;;;;;;;5030995;28;20033;-63
2022/01/20 14:30:28;;;;;;;4.00;2.20;;;;;;;;;;5026535;28;20460;-64
2022/01/20 14:32:54;;;;;;;3.35;2.40;;;;;;;;;;5030116;28;20065;-63
2022/01/20 14:35:20;;;;;;;5.95;3.10;;;;;;;;;;5029167;28;20492;-64
2022/01/20 14:37:46;;;;;;;7.57;2.92;;;;;;;;;;5031271;28;20427;-63
2022/01/20 14:40:12;;;;;;;4.93;2.90;;;;;;;;;;5030980;28;20021;-64
2022/01/20 14:42:38;;;;;;;4.40;2.58;;;;;;;;;;5023877;28;20021;-64
2022/01/20 14:45:04;;;;;;;4.53;2.72;;;;;;;;;;5029318;28;20746;-63
2022/01/20 14:47:31;;;;;;;5.25;2.90;;;;;;;;;;5022528;28;20029;-63
2022/01/20 14:49:57;;;;;;;4.00;2.85;;;;;;;;;;5032096;28;20409;-62
2022/01/20 14:52:22;;;;;;;6.28;3.00;;;;;;;;;;5027904;28;20048;-62
2022/01/20 14:54:48;;;;;;;8.90;3.47;;;;;;;;;;5028600;28;20033;-62
2022/01/20 14:57:13;;;;;;;6.82;3.25;;;;;;;;;;5028999;28;20091;-63
2022/01/20 14:59:39;;;;;;;6.50;3.92;;;;;;;;;;5027238;28;20037;-62
2022/01/20 15:02:04;;;;;;;6.47;3.58;;;;;;;;;;5026480;28;20079;-63
2022/01/20 15:04:30;;;;;;;5.32;3.67;;;;;;;;;;5027440;28;20438;-63
2022/01/20 15:06:55;;;;;;;7.28;3.80;;;;;;;;;;5024715;28;20058;-63
2022/01/20 15:09:21;;;;;;;8.85;4.57;;;;;;;;;;5031332;28;20026;-63
2022/01/20 15:11:46;;;;;;;8.52;4.45;;;;;;;;;;5029903;28;20471;-63
2022/01/20 15:14:11;;;;;;;7.00;4.07;;;;;;;;;;5023744;28;20025;-62
2022/01/20 15:16:36;;;;;;;8.55;4.93;;;;;;;;;;5022507;28;20136;-63
2022/01/20 15:19:04;;;;;;;7.63;4.40;;;;;;;;;;5023389;28;20108;-64
2022/01/20 15:21:30;;;;;;;7.50;4.13;;;;;;;;;;5029095;28;20185;-62
2022/01/20 15:23:55;;;;;;;8.10;4.35;;;;;;;;;;5030469;28;20021;-63
2022/01/20 15:26:20;;;;;;;6.95;4.20;;;;;;;;;;5023179;28;20117;-64
2022/01/20 15:28:48;;;;;;;11.32;4.68;;;;;;;;;;5026937;28;20495;-62
2022/01/20 15:31:14;;;;;;;8.02;4.95;;;;;;;;;;5023042;28;20045;-64
2022/01/20 15:33:43;;;;;;;7.47;4.65;;;;;;;;;;5025415;28;20110;-63
2022/01/20 15:36:08;;;;;;;6.50;2.72;;;;;;;;;;5026450;28;20036;-62
2022/01/20 15:38:33;;;;;;;6.32;3.13;;;;;;;;;;5029354;28;20013;-61
2022/01/20 15:40:59;;;;;;;3.90;2.47;;;;;;;;;;5030046;28;20023;-62
2022/01/20 15:43:24;;;;;;;6.38;2.17;;;;;;;;;;5030150;28;20471;-63
2022/01/20 15:45:49;;;;;;;4.25;2.22;;;;;;;;;;5022917;28;20153;-63
2022/01/20 15:48:14;;;;;;;5.13;2.10;;;;;;;;;;5026976;28;20060;-63
2022/01/20 15:50:39;;;;;;;5.23;2.80;;;;;;;;;;5029939;28;20029;-61